createdAt,value
2023-04-16T00:01:06.442Z,57.32
2023-04-16T00:06:28.422Z,57.23
2023-04-16T00:11:50.441Z,57.43
2023-04-16T00:17:12.471Z,57.29
2023-04-16T00:22:34.445Z,57.07
2023-04-16T00:27:56.445Z,57.55
2023-04-16T00:33:25.469Z,57.31
2023-04-16T00:38:47.456Z,57.10
2023-04-16T00:44:09.415Z,57.54
2023-04-16T00:49:31.446Z,57.52
2023-04-16T00:54:53.448Z,57.40
2023-04-16T01:00:16.430Z,57.68
2023-04-16T01:05:38.425Z,57.40
2023-04-16T01:11:00.414Z,57.35
2023-04-16T01:16:24.553Z,57.45
2023-04-16T01:21:46.440Z,57.63
2023-04-16T01:27:08.420Z,57.50
2023-04-16T01:32:30.458Z,57.60
2023-04-16T01:37:52.412Z,57.99
2023-04-16T01:43:14.404Z,57.96
2023-04-16T01:48:36.434Z,57.82
2023-04-16T01:53:58.425Z,58.06
2023-04-16T01:59:20.432Z,57.67
2023-04-16T02:04:42.470Z,57.95
2023-04-16T02:10:04.397Z,57.69
2023-04-16T02:15:27.407Z,57.74
2023-04-16T02:20:53.399Z,57.66
2023-04-16T02:26:15.406Z,57.83
2023-04-16T02:31:38.462Z,57.70
2023-04-16T02:37:01.418Z,58.00
2023-04-16T02:42:23.400Z,57.96
2023-04-16T02:47:45.433Z,57.83
2023-04-16T02:53:07.428Z,57.99
2023-04-16T02:58:30.434Z,57.80
2023-04-16T03:03:52.404Z,58.05
2023-04-16T03:09:14.556Z,57.92
2023-04-16T03:14:36.376Z,57.96
2023-04-16T03:19:58.412Z,58.01
2023-04-16T03:25:21.405Z,57.98
2023-04-16T03:30:43.399Z,57.83
2023-04-16T03:36:09.399Z,57.63
2023-04-16T03:41:31.377Z,57.98
2023-04-16T03:46:53.497Z,57.93
2023-04-16T03:52:15.371Z,57.89
2023-04-16T03:57:37.377Z,57.77
2023-04-16T04:03:01.679Z,57.54
2023-04-16T04:08:24.399Z,57.57
2023-04-16T04:13:46.360Z,57.60
2023-04-16T04:19:08.610Z,57.95
2023-04-16T04:24:30.386Z,57.63
2023-04-16T04:29:52.369Z,57.67
2023-04-16T04:35:22.388Z,57.63
2023-04-16T04:40:46.370Z,57.53
2023-04-16T04:46:09.449Z,57.32
2023-04-16T04:51:31.350Z,57.68
2023-04-16T04:56:53.384Z,57.80
2023-04-16T05:02:16.572Z,57.56
2023-04-16T05:07:38.369Z,57.75
2023-04-16T05:13:01.342Z,57.51
2023-04-16T05:18:23.349Z,57.47
2023-04-16T05:23:45.355Z,57.56
2023-04-16T05:29:07.479Z,57.91
2023-04-16T05:34:36.384Z,57.66
2023-04-16T05:39:58.360Z,57.92
2023-04-16T05:45:20.354Z,57.95
2023-04-16T05:50:43.344Z,58.03
2023-04-16T05:56:05.349Z,57.87
2023-04-16T06:01:28.340Z,58.02
2023-04-16T06:06:50.350Z,58.33
2023-04-16T06:12:12.389Z,57.99
2023-04-16T06:17:34.355Z,58.20
2023-04-16T06:22:56.346Z,58.14
2023-04-16T06:28:18.329Z,57.50
2023-04-16T06:33:47.337Z,57.35
2023-04-16T06:39:09.661Z,56.91
2023-04-16T06:44:31.329Z,56.86
2023-04-16T06:49:53.331Z,56.47
2023-04-16T06:55:16.326Z,56.41
2023-04-16T07:00:38.388Z,56.58
2023-04-16T07:06:00.342Z,56.29
2023-04-16T07:11:22.341Z,56.47
2023-04-16T07:16:44.337Z,56.34
2023-04-16T07:22:06.306Z,56.70
2023-04-16T07:27:28.331Z,56.40
2023-04-16T07:32:50.331Z,56.43
2023-04-16T07:38:12.347Z,56.61
2023-04-16T07:43:34.356Z,56.56
2023-04-16T07:48:56.320Z,56.70
2023-04-16T07:54:18.316Z,56.24
2023-04-16T07:59:40.316Z,56.17
2023-04-16T08:05:02.590Z,56.29
2023-04-16T08:10:24.341Z,56.21
2023-04-16T08:15:46.390Z,55.95
2023-04-16T08:21:08.314Z,55.79
2023-04-16T08:26:30.357Z,55.93
2023-04-16T08:31:52.377Z,55.60
2023-04-16T08:37:14.326Z,55.67
2023-04-16T08:42:54.659Z,55.48
2023-04-16T08:48:18.422Z,55.29
2023-04-16T08:53:49.277Z,54.93
2023-04-16T08:59:12.397Z,54.94
2023-04-16T09:04:35.326Z,55.31
2023-04-16T09:09:59.298Z,55.13
2023-04-16T09:15:23.309Z,54.92
2023-04-16T09:20:46.312Z,54.31
2023-04-16T09:26:08.281Z,54.41
2023-04-16T09:31:30.327Z,53.84
2023-04-16T09:36:52.335Z,53.90
2023-04-16T09:42:14.284Z,53.94
2023-04-16T09:47:37.329Z,53.83
2023-04-16T09:52:59.305Z,53.82
2023-04-16T09:58:21.541Z,53.80
2023-04-16T10:03:45.688Z,53.41
2023-04-16T10:09:09.528Z,53.24
2023-04-16T10:14:31.305Z,53.32
2023-04-16T10:19:54.303Z,53.25
2023-04-16T10:25:16.268Z,52.74
2023-04-16T10:30:39.286Z,52.47
2023-04-16T10:36:33.280Z,52.79
2023-04-16T10:41:56.284Z,52.86
2023-04-16T10:47:20.330Z,52.43
2023-04-16T10:52:42.274Z,52.33
2023-04-16T10:58:05.287Z,52.29
2023-04-16T11:03:27.388Z,51.48
2023-04-16T11:08:55.011Z,51.41
2023-04-16T11:14:18.264Z,50.97
2023-04-16T11:19:42.261Z,51.06
2023-04-16T11:25:09.267Z,51.23
2023-04-16T11:30:49.278Z,51.36
2023-04-16T11:36:12.244Z,50.72
2023-04-16T11:41:34.296Z,51.16
2023-04-16T11:46:57.292Z,51.19
2023-04-16T11:52:19.268Z,51.11
2023-04-16T11:57:41.296Z,51.03
2023-04-16T12:03:07.464Z,51.11
2023-04-16T12:08:39.250Z,51.06
2023-04-16T12:14:20.242Z,50.83
2023-04-16T12:19:55.248Z,51.26
2023-04-16T12:25:30.262Z,50.66
2023-04-16T12:30:58.277Z,50.13
2023-04-16T12:36:32.253Z,49.36
2023-04-16T12:41:54.232Z,48.60
2023-04-16T12:47:16.249Z,47.99
2023-04-16T12:52:38.248Z,48.30
2023-04-16T12:58:00.234Z,47.81
2023-04-16T13:03:22.356Z,47.97
2023-04-16T13:08:44.301Z,48.10
2023-04-16T13:14:06.244Z,48.21
2023-04-16T13:19:28.260Z,48.11
2023-04-16T13:24:50.234Z,48.53
2023-04-16T13:30:12.235Z,48.67
2023-04-16T13:35:41.240Z,48.55
2023-04-16T13:41:03.267Z,49.07
2023-04-16T13:46:25.294Z,49.45
2023-04-16T13:51:49.240Z,49.83
2023-04-16T13:57:11.233Z,50.13
2023-04-16T14:02:33.335Z,49.94
2023-04-16T14:07:55.255Z,49.93
2023-04-16T14:13:17.216Z,49.84
2023-04-16T14:18:39.209Z,50.01
2023-04-16T14:24:01.215Z,50.19
2023-04-16T14:29:23.220Z,50.09
2023-04-16T14:34:38.228Z,50.45
2023-04-16T14:40:00.225Z,50.45
2023-04-16T14:45:22.230Z,50.86
2023-04-16T14:50:45.238Z,50.12
2023-04-16T14:56:07.222Z,50.56
2023-04-16T15:01:29.283Z,50.31
2023-04-16T15:06:51.222Z,50.11
2023-04-16T15:12:13.237Z,50.27
2023-04-16T15:17:35.223Z,50.38
2023-04-16T15:22:57.210Z,50.11
2023-04-16T15:28:19.218Z,50.65
2023-04-16T15:33:41.211Z,51.05
2023-04-16T15:39:03.211Z,51.00
2023-04-16T15:44:25.219Z,50.52
2023-04-16T15:49:47.220Z,50.35
2023-04-16T15:55:10.211Z,50.02
2023-04-16T16:00:32.217Z,49.79
2023-04-16T16:05:55.322Z,49.80
2023-04-16T16:11:18.203Z,50.08
2023-04-16T16:16:41.218Z,49.76
2023-04-16T16:22:03.183Z,49.54
2023-04-16T16:27:28.189Z,49.55
2023-04-16T16:32:51.281Z,49.61
2023-04-16T16:38:13.227Z,49.38
2023-04-16T16:43:35.204Z,48.95
2023-04-16T16:48:57.181Z,48.44
2023-04-16T16:54:22.192Z,48.24
2023-04-16T16:59:44.185Z,48.23
2023-04-16T17:05:06.213Z,48.38
2023-04-16T17:10:28.195Z,48.34
2023-04-16T17:15:50.222Z,48.57
2023-04-16T17:21:12.406Z,48.63
2023-04-16T17:26:34.186Z,48.73
2023-04-16T17:31:56.274Z,48.78
2023-04-16T17:37:18.205Z,48.72
2023-04-16T17:42:43.191Z,48.92
2023-04-16T17:48:05.224Z,48.87
2023-04-16T17:53:27.183Z,48.95
2023-04-16T17:58:50.216Z,48.82
2023-04-16T18:04:12.744Z,49.11
2023-04-16T18:09:35.189Z,49.09
2023-04-16T18:14:57.198Z,49.29
2023-04-16T18:20:19.168Z,49.43
2023-04-16T18:25:41.175Z,49.69
2023-04-16T18:31:03.214Z,49.82
2023-04-16T18:36:32.172Z,49.86
2023-04-16T18:41:54.167Z,49.94
2023-04-16T18:47:16.175Z,49.99
2023-04-16T18:52:38.164Z,50.28
2023-04-16T18:58:00.209Z,50.53
2023-04-16T19:03:22.268Z,50.77
2023-04-16T19:08:44.218Z,50.77
2023-04-16T19:14:08.206Z,50.96
2023-04-16T19:19:30.173Z,51.10
2023-04-16T19:24:52.160Z,50.96
2023-04-16T19:30:14.173Z,50.63
2023-04-16T19:35:36.175Z,50.93
2023-04-16T19:40:59.177Z,50.57
2023-04-16T19:46:22.257Z,50.37
2023-04-16T19:51:44.174Z,50.87
2023-04-16T19:57:06.155Z,51.01
2023-04-16T20:02:28.256Z,51.30
2023-04-16T20:07:52.501Z,51.82
2023-04-16T20:13:18.822Z,52.26
2023-04-16T20:18:44.150Z,52.91
2023-04-16T20:24:09.131Z,53.30
2023-04-16T20:29:31.134Z,53.55
2023-04-16T20:34:53.145Z,54.10
2023-04-16T20:40:16.160Z,53.92
2023-04-16T20:45:47.336Z,54.11
2023-04-16T20:51:11.159Z,54.54
2023-04-16T20:56:33.143Z,54.14
2023-04-16T21:01:55.244Z,54.76
2023-04-16T21:07:17.142Z,54.72
2023-04-16T21:12:39.158Z,54.71
2023-04-16T21:18:01.162Z,54.83
2023-04-16T21:23:23.148Z,54.88
2023-04-16T21:28:45.127Z,55.07
2023-04-16T21:34:07.128Z,54.92
2023-04-16T21:39:29.119Z,54.73
2023-04-16T21:44:51.130Z,54.55
2023-04-16T21:50:13.144Z,54.88
2023-04-16T21:55:35.132Z,54.63
2023-04-16T22:00:57.178Z,54.80
2023-04-16T22:06:20.124Z,54.81
2023-04-16T22:11:43.133Z,54.82
2023-04-16T22:17:05.123Z,54.97
2023-04-16T22:22:27.126Z,54.70
2023-04-16T22:27:49.178Z,54.68
2023-04-16T22:33:11.171Z,55.16
2023-04-16T22:38:33.139Z,55.08
2023-04-16T22:43:55.118Z,55.11
2023-04-16T22:49:17.110Z,55.15
2023-04-16T22:54:44.124Z,55.15
2023-04-16T23:00:06.122Z,55.08
2023-04-16T23:05:28.091Z,55.14
2023-04-16T23:10:50.124Z,55.42
2023-04-16T23:16:12.139Z,55.20
2023-04-16T23:21:34.109Z,55.33
2023-04-16T23:26:56.112Z,55.65
2023-04-16T23:32:18.185Z,55.45
2023-04-16T23:37:40.102Z,55.35
2023-04-16T23:43:02.099Z,55.81
2023-04-16T23:48:24.109Z,55.78
2023-04-16T23:53:47.111Z,55.76
2023-04-16T23:59:09.202Z,55.39
